Russo, Anthony
United StatesManBorn 19772013 – 2024Runner id 476136
Events
24
2013 – 2024
Best pace
10.050
km/h · 2016
Best finish
1st
of 17 · 2017
Distance raced
2,349
km · splits not double-counted
Pace over time
km/h · higher is faster
Pace over time: 24 races from 2013 to 2024, ranging from 5.47 to 10.23 kilometres per hour, where higher is faster. A second, age-graded series is drawn above it; the gap between the two is the age credit.
- Actual pace
- Age-graded pace
Results
| Date | Event | Distance | Result | Pace km/h | Placing |
|---|---|---|---|---|---|
| 2013-11-23 | 50mi | 9:42:24 h | 8.290 | 342/858 | |
| 2015-07-18 | Lone Ranger 24 hr Urban UltraUnited States | 24h | 149.765 km | 6.240 | 9/128 |
| 2015-10-04 | 50km | 8:05:34 h | 6.178 | 280/290 | |
| 2016-05-15 | Dirty German Endurance Fest 50 MileUnited States | 50mi | 8:00:24 h | 10.050 | 15/120 |
| 2016-08-06 | 100mi | 23:07:42 h | 6.958 | 25/135 | |
| 2017-04-01 | 100mi | 19:05:19 h | 8.431 | 11/143 | |
| 2017-05-13 | Dirty German Endurance Fest 50 kmUnited States | 50km | 5:03:18 h | 9.891 | 12/153 |
| 2017-11-11 | 12h | 107.826 km | 8.986 | 1/17 | |
| 2018-02-17 | 100km | 14:41:51 h | 6.804 | 173/352 | |
| 2018-11-03 | 55mi | 10:04:07 h | 8.791 | 4/28 | |
| 2018-12-08 | 100km | 14:57:10 h | 6.688 | 46/128 | |
| 2019-09-28 | 6h | 52.142 km | 8.690 | 6/13 | |
| 2019-10-12 | 55mi | 9:42:17 h | 9.121 | 4/28 | |
| 2020-08-15 | 50km | 6:21:34 h | 7.862 | 9/36 | |
| 2020-09-27 | Laurel Highlands 70 Mile UltraUnited States | 70.5mi | 17:30:00 h | 6.483 | 14/44 |
| 2021-09-25 | Rock The Ridge 50-Mile Endurance ChallengeUnited States | 50mi | 11:59:31 h | 6.710 | 144/278 |
| 2021-11-06 | 55mi | 11:35:57 h | 7.631 | 33/70 | |
| 2022-03-05 | 40mi | 7:14:02 h | 8.899 | 13/86 | |
| 2022-04-09 | 100km | 15:05:40 h | 6.625 | 59/241 | |
| 2022-10-29 | 50km | 6:16:31 h | 7.968 | 8/38 | |
| 2023-03-18 | Wells Mills at the Rat Race 50kUnited States | 50km | 5:32:02 h | 9.035 | 6/19 |
| 2023-04-22 | 100mi | 24:39:38 h | 6.526 | 27/89 | |
| 2023-10-07 | Canal Corridor 100 Mile Endurance RunUnited States | 100mi | 20:28:12 h | 7.862 | 20/127 |
| 2024-06-29 | 100mi | 29:23:34 h | 5.475 | 252/286 |